Airfield :
LOGIN :

Register | Disclaimer

   EN    FR    IT 

 










Legend :    VFR   Marginal VFR   IFR   Intensive IFR   Very Intensive IFR
Visi :
Ceiling :
>= 8 km
>= 3000ft
5 to 8 km
1000 to 3000 ft
1500m to 5 km
500 to 1000 ft
800 to 1500m
200 to 500 ft
< 800m
< 200 ft
Symbols :   Thunderstorms  Fog  Heavy snow  Heavy precipitations  Wind > 20 kt
SIGMETs :     Misc.  Thunderstorms  Icing  Turbulence  Mountain Waves  Volcanic Ashes






- Airport Elevation : 844 ft
- IATA code : OSR


LKMT - Ostrava-Mosnov

CURRENT METAR :
  • 281830Z 27004KT 230V290 CAVOK 12/02 Q1014 NOSIG

EXPIRED METARs :
  • 281800Z 29009KT CAVOK 14/01 Q1014 NOSIG
  • 281730Z 28005KT 250V310 CAVOK 16/02 Q1014 NOSIG
  • 281700Z 28005KT 240V310 CAVOK 15/03 Q1014 NOSIG
  • 281630Z 25009KT CAVOK 15/04 Q1014 NOSIG
  • 281600Z 29007KT 240V330 CAVOK 16/03 Q1014 NOSIG

TAF TAF LKMT
Valid from the 28 at 18:00 until the 30 at 00:00 UTC


281700Z 2818/3000 24013KT CAVOK
BECMG 2818/2820 22005KT
TEMPO 2910/2917 04005KT 9999 -SHRA BKN040
BECMG 2919/2921 9999 BKN016
TEMPO 2921/3000 5000 RA BR BKN009



MET'MAP, your aeronautical weather chart ! - Copyright ORBIFLY December 2007 - Disclaimer

ORBIFLY MET'MAP TEAM :

Programming & Development : Alexandra Zaïnal
Original concept : Baudouin d'Aumeries
Technical & hardware support : Manuel Goepfert
Assistance : Marc-Olivier Méhu

Contact : metmap@orbifly.com




SOURCES & CREDITS :

   NOAA